sensor_id;sensor_type;location;lat;lon;timestamp;temperature;humidity
9116;DHT22;4593;53.652;10.168;2023-03-14T00:01:24;10.90;85.30
9116;DHT22;4593;53.652;10.168;2023-03-14T00:03:50;10.90;85.00
9116;DHT22;4593;53.652;10.168;2023-03-14T00:06:16;10.80;85.10
9116;DHT22;4593;53.652;10.168;2023-03-14T00:08:43;10.70;85.10
9116;DHT22;4593;53.652;10.168;2023-03-14T00:11:12;10.60;85.50
9116;DHT22;4593;53.652;10.168;2023-03-14T00:13:38;10.60;85.80
9116;DHT22;4593;53.652;10.168;2023-03-14T00:16:05;10.60;86.10
9116;DHT22;4593;53.652;10.168;2023-03-14T00:18:32;10.60;86.10
9116;DHT22;4593;53.652;10.168;2023-03-14T00:21:02;10.70;86.50
9116;DHT22;4593;53.652;10.168;2023-03-14T00:23:29;10.70;86.60
9116;DHT22;4593;53.652;10.168;2023-03-14T00:26:03;10.70;86.80
9116;DHT22;4593;53.652;10.168;2023-03-14T00:28:29;10.70;86.90
9116;DHT22;4593;53.652;10.168;2023-03-14T00:30:54;10.80;86.90
9116;DHT22;4593;53.652;10.168;2023-03-14T00:33:21;10.90;86.50
9116;DHT22;4593;53.652;10.168;2023-03-14T00:35:57;11.00;86.20
9116;DHT22;4593;53.652;10.168;2023-03-14T00:38:24;11.00;85.80
9116;DHT22;4593;53.652;10.168;2023-03-14T00:40:51;11.00;85.50
9116;DHT22;4593;53.652;10.168;2023-03-14T00:43:18;11.10;85.20
9116;DHT22;4593;53.652;10.168;2023-03-14T00:45:44;11.00;84.90
9116;DHT22;4593;53.652;10.168;2023-03-14T00:48:09;11.00;84.50
9116;DHT22;4593;53.652;10.168;2023-03-14T00:50:35;10.90;84.30
9116;DHT22;4593;53.652;10.168;2023-03-14T00:53:01;10.90;84.30
9116;DHT22;4593;53.652;10.168;2023-03-14T00:55:27;10.90;84.20
9116;DHT22;4593;53.652;10.168;2023-03-14T00:57:52;10.90;84.20
9116;DHT22;4593;53.652;10.168;2023-03-14T01:00:18;10.80;84.30
9116;DHT22;4593;53.652;10.168;2023-03-14T01:02:44;10.90;84.30
9116;DHT22;4593;53.652;10.168;2023-03-14T01:05:09;10.90;84.10
9116;DHT22;4593;53.652;10.168;2023-03-14T01:07:38;10.90;84.20
9116;DHT22;4593;53.652;10.168;2023-03-14T01:10:05;10.90;84.00
9116;DHT22;4593;53.652;10.168;2023-03-14T01:12:31;10.90;83.80
9116;DHT22;4593;53.652;10.168;2023-03-14T01:14:57;10.90;83.80
9116;DHT22;4593;53.652;10.168;2023-03-14T01:17:23;10.90;83.80
9116;DHT22;4593;53.652;10.168;2023-03-14T01:19:48;11.00;83.70
9116;DHT22;4593;53.652;10.168;2023-03-14T01:22:14;11.00;83.80
9116;DHT22;4593;53.652;10.168;2023-03-14T01:24:40;11.00;83.70
9116;DHT22;4593;53.652;10.168;2023-03-14T01:27:05;11.00;83.50
9116;DHT22;4593;53.652;10.168;2023-03-14T01:29:31;11.10;83.40
9116;DHT22;4593;53.652;10.168;2023-03-14T01:31:57;11.10;83.40
9116;DHT22;4593;53.652;10.168;2023-03-14T01:34:23;11.10;83.30
9116;DHT22;4593;53.652;10.168;2023-03-14T01:36:48;11.10;83.20
9116;DHT22;4593;53.652;10.168;2023-03-14T01:39:14;11.10;83.20
9116;DHT22;4593;53.652;10.168;2023-03-14T01:41:40;11.10;83.10
9116;DHT22;4593;53.652;10.168;2023-03-14T01:44:10;11.10;83.00
9116;DHT22;4593;53.652;10.168;2023-03-14T01:51:59;10.70;84.00
9116;DHT22;4593;53.652;10.168;2023-03-14T01:54:57;10.60;84.50
9116;DHT22;4593;53.652;10.168;2023-03-14T01:57:37;10.60;84.70
9116;DHT22;4593;53.652;10.168;2023-03-14T02:00:09;10.50;85.00
9116;DHT22;4593;53.652;10.168;2023-03-14T02:02:48;10.50;85.20
9116;DHT22;4593;53.652;10.168;2023-03-14T02:05:19;10.60;85.50
9116;DHT22;4593;53.652;10.168;2023-03-14T02:07:47;10.60;85.80
9116;DHT22;4593;53.652;10.168;2023-03-14T02:10:16;10.70;86.00
9116;DHT22;4593;53.652;10.168;2023-03-14T02:12:45;10.70;86.10
9116;DHT22;4593;53.652;10.168;2023-03-14T02:15:11;10.70;86.10
9116;DHT22;4593;53.652;10.168;2023-03-14T02:17:37;10.70;86.20
9116;DHT22;4593;53.652;10.168;2023-03-14T02:22:48;10.60;86.50
9116;DHT22;4593;53.652;10.168;2023-03-14T02:27:42;10.50;87.00
9116;DHT22;4593;53.652;10.168;2023-03-14T02:33:30;10.20;87.60
9116;DHT22;4593;53.652;10.168;2023-03-14T02:36:07;10.20;88.20
9116;DHT22;4593;53.652;10.168;2023-03-14T02:38:52;10.10;88.50
9116;DHT22;4593;53.652;10.168;2023-03-14T02:41:20;10.10;88.80
9116;DHT22;4593;53.652;10.168;2023-03-14T02:43:46;10.00;88.90
9116;DHT22;4593;53.652;10.168;2023-03-14T02:46:13;10.00;89.20
9116;DHT22;4593;53.652;10.168;2023-03-14T02:48:45;10.00;89.20
9116;DHT22;4593;53.652;10.168;2023-03-14T02:51:12;10.00;89.20
9116;DHT22;4593;53.652;10.168;2023-03-14T02:53:38;10.10;89.30
9116;DHT22;4593;53.652;10.168;2023-03-14T02:56:07;10.10;89.30
9116;DHT22;4593;53.652;10.168;2023-03-14T02:58:33;10.20;89.20
9116;DHT22;4593;53.652;10.168;2023-03-14T03:00:59;10.20;88.80
9116;DHT22;4593;53.652;10.168;2023-03-14T03:03:24;10.30;88.50
9116;DHT22;4593;53.652;10.168;2023-03-14T03:05:52;10.40;88.20
9116;DHT22;4593;53.652;10.168;2023-03-14T03:08:19;10.40;88.10
9116;DHT22;4593;53.652;10.168;2023-03-14T03:10:46;10.50;87.80
9116;DHT22;4593;53.652;10.168;2023-03-14T03:13:11;10.50;87.50
9116;DHT22;4593;53.652;10.168;2023-03-14T03:15:37;10.50;87.20
9116;DHT22;4593;53.652;10.168;2023-03-14T03:18:03;10.50;87.20
9116;DHT22;4593;53.652;10.168;2023-03-14T03:20:28;10.60;87.00
9116;DHT22;4593;53.652;10.168;2023-03-14T03:22:54;10.70;86.80
9116;DHT22;4593;53.652;10.168;2023-03-14T03:25:20;10.70;86.60
9116;DHT22;4593;53.652;10.168;2023-03-14T03:27:46;10.70;86.40
9116;DHT22;4593;53.652;10.168;2023-03-14T03:30:12;10.70;86.20
9116;DHT22;4593;53.652;10.168;2023-03-14T03:32:38;10.70;86.20
9116;DHT22;4593;53.652;10.168;2023-03-14T03:35:04;10.70;86.10
9116;DHT22;4593;53.652;10.168;2023-03-14T03:37:31;10.60;86.20
9116;DHT22;4593;53.652;10.168;2023-03-14T03:39:57;10.60;86.10
9116;DHT22;4593;53.652;10.168;2023-03-14T03:42:23;10.70;86.10
9116;DHT22;4593;53.652;10.168;2023-03-14T03:44:48;10.70;86.00
9116;DHT22;4593;53.652;10.168;2023-03-14T03:47:15;10.80;85.90
9116;DHT22;4593;53.652;10.168;2023-03-14T03:49:41;10.80;85.60
9116;DHT22;4593;53.652;10.168;2023-03-14T03:52:06;10.90;85.30
9116;DHT22;4593;53.652;10.168;2023-03-14T03:54:32;10.90;85.10
9116;DHT22;4593;53.652;10.168;2023-03-14T03:56:57;11.00;84.80
9116;DHT22;4593;53.652;10.168;2023-03-14T03:59:23;11.00;84.60
9116;DHT22;4593;53.652;10.168;2023-03-14T04:01:49;11.00;84.40
9116;DHT22;4593;53.652;10.168;2023-03-14T04:04:14;11.00;84.20
9116;DHT22;4593;53.652;10.168;2023-03-14T04:06:40;11.00;84.20
9116;DHT22;4593;53.652;10.168;2023-03-14T04:09:08;10.90;84.10
9116;DHT22;4593;53.652;10.168;2023-03-14T04:11:34;10.90;84.30
9116;DHT22;4593;53.652;10.168;2023-03-14T04:13:59;10.80;84.20
9116;DHT22;4593;53.652;10.168;2023-03-14T04:16:26;10.80;84.30
9116;DHT22;4593;53.652;10.168;2023-03-14T04:18:51;10.70;84.70
9116;DHT22;4593;53.652;10.168;2023-03-14T04:21:18;10.60;84.80
9116;DHT22;4593;53.652;10.168;2023-03-14T04:23:43;10.60;85.20
9116;DHT22;4593;53.652;10.168;2023-03-14T04:26:09;10.60;85.30
9116;DHT22;4593;53.652;10.168;2023-03-14T04:28:35;10.60;85.20
9116;DHT22;4593;53.652;10.168;2023-03-14T04:31:19;10.60;85.10
9116;DHT22;4593;53.652;10.168;2023-03-14T04:33:45;10.70;85.10
9116;DHT22;4593;53.652;10.168;2023-03-14T04:36:11;10.60;84.80
9116;DHT22;4593;53.652;10.168;2023-03-14T04:38:37;10.70;84.60
9116;DHT22;4593;53.652;10.168;2023-03-14T04:41:09;10.60;84.60
9116;DHT22;4593;53.652;10.168;2023-03-14T04:43:35;10.60;84.50
9116;DHT22;4593;53.652;10.168;2023-03-14T04:46:00;10.60;84.70
9116;DHT22;4593;53.652;10.168;2023-03-14T04:48:27;10.60;84.80
9116;DHT22;4593;53.652;10.168;2023-03-14T04:50:53;10.70;84.70
9116;DHT22;4593;53.652;10.168;2023-03-14T04:53:19;10.80;84.30
9116;DHT22;4593;53.652;10.168;2023-03-14T04:55:54;10.80;83.80
9116;DHT22;4593;53.652;10.168;2023-03-14T04:58:21;10.90;83.40
9116;DHT22;4593;53.652;10.168;2023-03-14T05:00:47;10.90;83.00
9116;DHT22;4593;53.652;10.168;2023-03-14T05:03:15;10.90;83.00
9116;DHT22;4593;53.652;10.168;2023-03-14T05:05:41;11.00;82.80
9116;DHT22;4593;53.652;10.168;2023-03-14T05:08:06;11.00;82.50
9116;DHT22;4593;53.652;10.168;2023-03-14T05:10:32;11.00;82.20
9116;DHT22;4593;53.652;10.168;2023-03-14T05:12:58;11.00;82.20
9116;DHT22;4593;53.652;10.168;2023-03-14T05:15:24;11.10;81.90
9116;DHT22;4593;53.652;10.168;2023-03-14T05:17:49;11.10;81.20
9116;DHT22;4593;53.652;10.168;2023-03-14T05:20:15;10.90;79.40
9116;DHT22;4593;53.652;10.168;2023-03-14T05:22:42;10.90;79.50
9116;DHT22;4593;53.652;10.168;2023-03-14T05:25:08;10.90;79.30
9116;DHT22;4593;53.652;10.168;2023-03-14T05:27:34;10.90;79.10
9116;DHT22;4593;53.652;10.168;2023-03-14T05:30:01;10.70;79.80
9116;DHT22;4593;53.652;10.168;2023-03-14T05:32:27;10.40;83.30
9116;DHT22;4593;53.652;10.168;2023-03-14T05:34:53;10.20;86.00
9116;DHT22;4593;53.652;10.168;2023-03-14T05:37:23;10.00;88.80
9116;DHT22;4593;53.652;10.168;2023-03-14T05:39:49;9.80;90.30
9116;DHT22;4593;53.652;10.168;2023-03-14T05:42:14;9.70;91.10
9116;DHT22;4593;53.652;10.168;2023-03-14T05:44:40;9.70;91.80
9116;DHT22;4593;53.652;10.168;2023-03-14T05:47:06;9.60;92.10
9116;DHT22;4593;53.652;10.168;2023-03-14T05:49:31;9.60;92.90
9116;DHT22;4593;53.652;10.168;2023-03-14T05:51:57;9.60;93.30
9116;DHT22;4593;53.652;10.168;2023-03-14T05:54:23;9.60;93.40
9116;DHT22;4593;53.652;10.168;2023-03-14T05:56:48;9.60;93.60
9116;DHT22;4593;53.652;10.168;2023-03-14T05:59:14;9.60;94.10
9116;DHT22;4593;53.652;10.168;2023-03-14T06:01:40;9.60;94.40
9116;DHT22;4593;53.652;10.168;2023-03-14T06:04:06;9.60;94.40
9116;DHT22;4593;53.652;10.168;2023-03-14T06:06:31;9.60;94.80
9116;DHT22;4593;53.652;10.168;2023-03-14T06:08:57;9.60;94.90
9116;DHT22;4593;53.652;10.168;2023-03-14T06:11:22;9.60;94.90
9116;DHT22;4593;53.652;10.168;2023-03-14T06:13:48;9.70;94.80
9116;DHT22;4593;53.652;10.168;2023-03-14T06:16:14;9.70;94.70
9116;DHT22;4593;53.652;10.168;2023-03-14T06:18:39;9.70;94.90
9116;DHT22;4593;53.652;10.168;2023-03-14T06:21:05;9.80;95.00
9116;DHT22;4593;53.652;10.168;2023-03-14T06:23:31;9.70;94.70
9116;DHT22;4593;53.652;10.168;2023-03-14T06:25:57;9.80;95.00
9116;DHT22;4593;53.652;10.168;2023-03-14T06:28:23;9.80;95.00
9116;DHT22;4593;53.652;10.168;2023-03-14T06:30:48;9.80;95.10
9116;DHT22;4593;53.652;10.168;2023-03-14T06:33:14;9.90;95.20
9116;DHT22;4593;53.652;10.168;2023-03-14T06:35:40;9.90;95.30
9116;DHT22;4593;53.652;10.168;2023-03-14T06:38:05;9.90;95.30
9116;DHT22;4593;53.652;10.168;2023-03-14T06:40:31;9.90;95.50
9116;DHT22;4593;53.652;10.168;2023-03-14T06:42:57;9.90;95.40
9116;DHT22;4593;53.652;10.168;2023-03-14T06:45:22;10.00;95.30
9116;DHT22;4593;53.652;10.168;2023-03-14T06:47:48;9.90;95.00
9116;DHT22;4593;53.652;10.168;2023-03-14T06:50:14;9.80;95.20
9116;DHT22;4593;53.652;10.168;2023-03-14T06:52:40;9.80;95.30
9116;DHT22;4593;53.652;10.168;2023-03-14T06:55:11;9.80;95.50
9116;DHT22;4593;53.652;10.168;2023-03-14T06:57:37;9.80;95.30
9116;DHT22;4593;53.652;10.168;2023-03-14T07:00:04;10.00;95.00
9116;DHT22;4593;53.652;10.168;2023-03-14T07:02:30;10.00;94.40
9116;DHT22;4593;53.652;10.168;2023-03-14T07:04:55;10.10;94.70
9116;DHT22;4593;53.652;10.168;2023-03-14T07:07:21;10.10;94.40
9116;DHT22;4593;53.652;10.168;2023-03-14T07:09:47;10.10;94.20
9116;DHT22;4593;53.652;10.168;2023-03-14T07:12:12;10.20;93.90
9116;DHT22;4593;53.652;10.168;2023-03-14T07:14:38;10.30;93.70
9116;DHT22;4593;53.652;10.168;2023-03-14T07:17:04;10.40;93.30
9116;DHT22;4593;53.652;10.168;2023-03-14T07:19:29;10.40;92.40
9116;DHT22;4593;53.652;10.168;2023-03-14T07:21:55;10.50;92.10
9116;DHT22;4593;53.652;10.168;2023-03-14T07:24:21;10.50;91.90
9116;DHT22;4593;53.652;10.168;2023-03-14T07:26:47;10.50;90.90
9116;DHT22;4593;53.652;10.168;2023-03-14T07:29:12;10.50;90.00
9116;DHT22;4593;53.652;10.168;2023-03-14T07:31:38;10.40;89.50
9116;DHT22;4593;53.652;10.168;2023-03-14T07:34:03;10.50;89.30
9116;DHT22;4593;53.652;10.168;2023-03-14T07:36:29;10.60;88.30
9116;DHT22;4593;53.652;10.168;2023-03-14T07:38:55;10.70;88.40
9116;DHT22;4593;53.652;10.168;2023-03-14T07:41:21;10.90;87.70
9116;DHT22;4593;53.652;10.168;2023-03-14T07:43:48;10.80;86.80
9116;DHT22;4593;53.652;10.168;2023-03-14T07:46:14;10.80;86.50
9116;DHT22;4593;53.652;10.168;2023-03-14T07:48:40;10.90;86.20
9116;DHT22;4593;53.652;10.168;2023-03-14T07:51:06;11.00;85.50
9116;DHT22;4593;53.652;10.168;2023-03-14T07:53:32;11.20;85.50
9116;DHT22;4593;53.652;10.168;2023-03-14T07:55:57;11.30;84.80
9116;DHT22;4593;53.652;10.168;2023-03-14T07:58:23;11.30;85.00
9116;DHT22;4593;53.652;10.168;2023-03-14T08:00:50;11.20;85.20
9116;DHT22;4593;53.652;10.168;2023-03-14T08:03:16;10.90;86.30
9116;DHT22;4593;53.652;10.168;2023-03-14T08:05:42;10.80;87.40
9116;DHT22;4593;53.652;10.168;2023-03-14T08:08:07;10.70;88.20
9116;DHT22;4593;53.652;10.168;2023-03-14T08:10:33;10.70;89.10
9116;DHT22;4593;53.652;10.168;2023-03-14T08:13:00;10.80;89.20
9116;DHT22;4593;53.652;10.168;2023-03-14T08:15:28;10.80;89.30
9116;DHT22;4593;53.652;10.168;2023-03-14T08:17:53;10.90;88.70
9116;DHT22;4593;53.652;10.168;2023-03-14T08:20:24;11.10;88.20
9116;DHT22;4593;53.652;10.168;2023-03-14T08:22:50;11.10;86.30
9116;DHT22;4593;53.652;10.168;2023-03-14T08:25:16;11.20;85.90
9116;DHT22;4593;53.652;10.168;2023-03-14T08:27:42;11.20;85.40
9116;DHT22;4593;53.652;10.168;2023-03-14T08:30:11;11.40;85.50
9116;DHT22;4593;53.652;10.168;2023-03-14T08:32:37;11.70;84.50
9116;DHT22;4593;53.652;10.168;2023-03-14T08:35:04;11.90;83.10
9116;DHT22;4593;53.652;10.168;2023-03-14T08:37:31;11.90;81.90
9116;DHT22;4593;53.652;10.168;2023-03-14T08:39:57;11.70;81.70
9116;DHT22;4593;53.652;10.168;2023-03-14T08:42:23;11.80;81.40
9116;DHT22;4593;53.652;10.168;2023-03-14T08:44:51;11.70;81.40
9116;DHT22;4593;53.652;10.168;2023-03-14T08:47:16;11.80;80.90
9116;DHT22;4593;53.652;10.168;2023-03-14T08:49:42;11.80;80.90
9116;DHT22;4593;53.652;10.168;2023-03-14T08:52:08;11.80;79.90
9116;DHT22;4593;53.652;10.168;2023-03-14T08:54:34;11.70;80.50
9116;DHT22;4593;53.652;10.168;2023-03-14T08:56:59;11.80;81.20
9116;DHT22;4593;53.652;10.168;2023-03-14T08:59:25;11.80;80.00
9116;DHT22;4593;53.652;10.168;2023-03-14T09:01:51;11.70;80.40
9116;DHT22;4593;53.652;10.168;2023-03-14T09:04:16;11.80;80.60
9116;DHT22;4593;53.652;10.168;2023-03-14T09:06:42;11.80;80.50
9116;DHT22;4593;53.652;10.168;2023-03-14T09:09:08;11.60;81.50
9116;DHT22;4593;53.652;10.168;2023-03-14T09:11:34;11.40;83.00
9116;DHT22;4593;53.652;10.168;2023-03-14T09:14:00;11.20;84.10
9116;DHT22;4593;53.652;10.168;2023-03-14T09:16:25;11.20;84.80
9116;DHT22;4593;53.652;10.168;2023-03-14T09:18:51;11.40;85.30
9116;DHT22;4593;53.652;10.168;2023-03-14T09:21:20;11.70;84.20
9116;DHT22;4593;53.652;10.168;2023-03-14T09:23:46;11.80;83.80
9116;DHT22;4593;53.652;10.168;2023-03-14T09:26:12;11.70;83.50
9116;DHT22;4593;53.652;10.168;2023-03-14T09:28:38;11.60;83.80
9116;DHT22;4593;53.652;10.168;2023-03-14T09:31:08;11.50;84.00
9116;DHT22;4593;53.652;10.168;2023-03-14T09:33:35;11.40;84.00
9116;DHT22;4593;53.652;10.168;2023-03-14T09:36:01;11.40;84.70
9116;DHT22;4593;53.652;10.168;2023-03-14T09:38:27;11.50;84.70
9116;DHT22;4593;53.652;10.168;2023-03-14T09:40:54;11.50;83.80
9116;DHT22;4593;53.652;10.168;2023-03-14T09:43:21;11.50;84.40
9116;DHT22;4593;53.652;10.168;2023-03-14T09:45:48;11.40;85.00
9116;DHT22;4593;53.652;10.168;2023-03-14T09:48:27;11.20;85.90
9116;DHT22;4593;53.652;10.168;2023-03-14T09:50:58;11.10;86.20
9116;DHT22;4593;53.652;10.168;2023-03-14T09:53:37;11.30;86.70
9116;DHT22;4593;53.652;10.168;2023-03-14T09:56:08;11.50;86.30
9116;DHT22;4593;53.652;10.168;2023-03-14T09:58:36;11.80;85.20
9116;DHT22;4593;53.652;10.168;2023-03-14T10:01:11;12.20;83.80
9116;DHT22;4593;53.652;10.168;2023-03-14T10:03:39;12.10;81.80
9116;DHT22;4593;53.652;10.168;2023-03-14T10:06:13;10.80;83.40
9116;DHT22;4593;53.652;10.168;2023-03-14T10:08:41;10.00;87.90
9116;DHT22;4593;53.652;10.168;2023-03-14T10:11:14;9.50;89.00
9116;DHT22;4593;53.652;10.168;2023-03-14T10:14:02;9.10;90.10
9116;DHT22;4593;53.652;10.168;2023-03-14T10:16:35;8.70;91.60
9116;DHT22;4593;53.652;10.168;2023-03-14T10:19:03;8.50;93.30
9116;DHT22;4593;53.652;10.168;2023-03-14T10:21:30;8.40;94.30
9116;DHT22;4593;53.652;10.168;2023-03-14T10:24:26;8.10;95.30
9116;DHT22;4593;53.652;10.168;2023-03-14T10:27:38;8.00;95.60
9116;DHT22;4593;53.652;10.168;2023-03-14T10:29:54;7.80;94.40
9116;DHT22;4593;53.652;10.168;2023-03-14T10:32:23;7.40;94.10
9116;DHT22;4593;53.652;10.168;2023-03-14T10:37:34;6.50;93.80
9116;DHT22;4593;53.652;10.168;2023-03-14T10:40:02;6.60;94.70
9116;DHT22;4593;53.652;10.168;2023-03-14T10:42:33;6.40;94.80
9116;DHT22;4593;53.652;10.168;2023-03-14T10:45:33;6.20;95.00
9116;DHT22;4593;53.652;10.168;2023-03-14T10:48:13;6.10;95.90
9116;DHT22;4593;53.652;10.168;2023-03-14T10:53:46;5.60;95.00
9116;DHT22;4593;53.652;10.168;2023-03-14T10:56:18;5.40;93.20
9116;DHT22;4593;53.652;10.168;2023-03-14T10:58:52;5.30;93.30
9116;DHT22;4593;53.652;10.168;2023-03-14T11:04:09;5.10;94.30
9116;DHT22;4593;53.652;10.168;2023-03-14T11:09:34;5.20;94.10
9116;DHT22;4593;53.652;10.168;2023-03-14T11:14:52;5.00;93.70
9116;DHT22;4593;53.652;10.168;2023-03-14T11:17:34;4.80;93.00
9116;DHT22;4593;53.652;10.168;2023-03-14T11:20:24;4.70;91.90
9116;DHT22;4593;53.652;10.168;2023-03-14T11:28:29;4.40;91.00
9116;DHT22;4593;53.652;10.168;2023-03-14T11:31:27;4.50;91.00
9116;DHT22;4593;53.652;10.168;2023-03-14T11:34:17;4.60;91.30
9116;DHT22;4593;53.652;10.168;2023-03-14T11:36:59;4.70;91.00
9116;DHT22;4593;53.652;10.168;2023-03-14T11:39:47;4.70;90.80
9116;DHT22;4593;53.652;10.168;2023-03-14T11:42:16;4.70;90.30
9116;DHT22;4593;53.652;10.168;2023-03-14T11:44:48;4.50;90.30
9116;DHT22;4593;53.652;10.168;2023-03-14T11:53:29;4.50;93.10
9116;DHT22;4593;53.652;10.168;2023-03-14T11:55:54;4.70;91.40
9116;DHT22;4593;53.652;10.168;2023-03-14T11:58:29;4.60;88.40
9116;DHT22;4593;53.652;10.168;2023-03-14T12:00:57;4.70;89.20
9116;DHT22;4593;53.652;10.168;2023-03-14T12:03:29;4.90;88.00
9116;DHT22;4593;53.652;10.168;2023-03-14T12:11:30;5.60;82.40
9116;DHT22;4593;53.652;10.168;2023-03-14T12:13:57;5.50;81.20
9116;DHT22;4593;53.652;10.168;2023-03-14T12:18:52;5.50;81.40
9116;DHT22;4593;53.652;10.168;2023-03-14T12:21:19;5.50;79.20
9116;DHT22;4593;53.652;10.168;2023-03-14T12:23:57;5.50;79.50
9116;DHT22;4593;53.652;10.168;2023-03-14T12:26:25;5.70;79.30
9116;DHT22;4593;53.652;10.168;2023-03-14T12:31:35;5.40;76.80
9116;DHT22;4593;53.652;10.168;2023-03-14T12:42:17;5.70;79.60
9116;DHT22;4593;53.652;10.168;2023-03-14T12:44:51;5.70;79.00
9116;DHT22;4593;53.652;10.168;2023-03-14T12:49:50;5.80;77.10
9116;DHT22;4593;53.652;10.168;2023-03-14T12:52:44;5.80;76.50
9116;DHT22;4593;53.652;10.168;2023-03-14T13:06:09;6.30;76.50
9116;DHT22;4593;53.652;10.168;2023-03-14T13:08:41;6.20;77.40
9116;DHT22;4593;53.652;10.168;2023-03-14T13:13:37;5.90;79.10
9116;DHT22;4593;53.652;10.168;2023-03-14T13:16:15;5.70;81.60
9116;DHT22;4593;53.652;10.168;2023-03-14T13:19:09;5.40;83.10
9116;DHT22;4593;53.652;10.168;2023-03-14T13:21:34;5.40;83.90
9116;DHT22;4593;53.652;10.168;2023-03-14T13:24:05;5.40;84.50
9116;DHT22;4593;53.652;10.168;2023-03-14T13:26:44;5.50;84.10
9116;DHT22;4593;53.652;10.168;2023-03-14T13:29:24;5.80;83.00
9116;DHT22;4593;53.652;10.168;2023-03-14T13:31:52;6.10;81.70
9116;DHT22;4593;53.652;10.168;2023-03-14T13:34:20;6.30;80.70
9116;DHT22;4593;53.652;10.168;2023-03-14T13:36:46;6.30;79.20
9116;DHT22;4593;53.652;10.168;2023-03-14T13:39:18;6.50;77.20
9116;DHT22;4593;53.652;10.168;2023-03-14T13:41:45;6.20;70.20
9116;DHT22;4593;53.652;10.168;2023-03-14T13:44:29;6.20;70.10
9116;DHT22;4593;53.652;10.168;2023-03-14T13:47:00;6.50;69.30
9116;DHT22;4593;53.652;10.168;2023-03-14T13:49:27;6.40;64.50
9116;DHT22;4593;53.652;10.168;2023-03-14T13:51:54;6.40;64.10
9116;DHT22;4593;53.652;10.168;2023-03-14T13:54:22;6.40;61.00
9116;DHT22;4593;53.652;10.168;2023-03-14T13:56:48;6.40;60.10
9116;DHT22;4593;53.652;10.168;2023-03-14T13:59:24;6.40;57.90
9116;DHT22;4593;53.652;10.168;2023-03-14T14:01:50;6.50;58.60
9116;DHT22;4593;53.652;10.168;2023-03-14T14:04:18;6.30;55.70
9116;DHT22;4593;53.652;10.168;2023-03-14T14:06:47;6.30;57.60
9116;DHT22;4593;53.652;10.168;2023-03-14T14:09:19;6.20;56.80
9116;DHT22;4593;53.652;10.168;2023-03-14T14:16:59;6.60;57.80
9116;DHT22;4593;53.652;10.168;2023-03-14T14:19:27;6.70;58.50
9116;DHT22;4593;53.652;10.168;2023-03-14T14:21:54;6.60;57.20
9116;DHT22;4593;53.652;10.168;2023-03-14T14:24:23;6.60;57.20
9116;DHT22;4593;53.652;10.168;2023-03-14T14:26:54;6.60;56.70
9116;DHT22;4593;53.652;10.168;2023-03-14T14:29:29;6.50;55.90
9116;DHT22;4593;53.652;10.168;2023-03-14T14:39:46;6.50;58.60
9116;DHT22;4593;53.652;10.168;2023-03-14T14:42:16;6.60;58.00
9116;DHT22;4593;53.652;10.168;2023-03-14T14:44:43;6.50;57.90
9116;DHT22;4593;53.652;10.168;2023-03-14T14:47:13;6.30;57.50
9116;DHT22;4593;53.652;10.168;2023-03-14T14:49:40;6.10;58.60
9116;DHT22;4593;53.652;10.168;2023-03-14T14:54:53;6.10;59.80
9116;DHT22;4593;53.652;10.168;2023-03-14T14:57:21;6.20;59.50
9116;DHT22;4593;53.652;10.168;2023-03-14T14:59:49;6.20;59.80
9116;DHT22;4593;53.652;10.168;2023-03-14T15:02:34;6.30;60.00
9116;DHT22;4593;53.652;10.168;2023-03-14T15:05:01;6.30;59.50
9116;DHT22;4593;53.652;10.168;2023-03-14T15:07:26;6.30;59.40
9116;DHT22;4593;53.652;10.168;2023-03-14T15:09:52;6.20;59.50
9116;DHT22;4593;53.652;10.168;2023-03-14T15:12:18;6.40;59.70
9116;DHT22;4593;53.652;10.168;2023-03-14T15:14:45;6.50;58.20
9116;DHT22;4593;53.652;10.168;2023-03-14T15:17:11;6.50;54.20
9116;DHT22;4593;53.652;10.168;2023-03-14T15:19:38;6.30;54.10
9116;DHT22;4593;53.652;10.168;2023-03-14T15:22:07;6.40;54.10
9116;DHT22;4593;53.652;10.168;2023-03-14T15:24:34;6.50;55.80
9116;DHT22;4593;53.652;10.168;2023-03-14T15:27:00;6.60;54.00
9116;DHT22;4593;53.652;10.168;2023-03-14T15:29:26;6.70;54.10
9116;DHT22;4593;53.652;10.168;2023-03-14T15:31:51;6.80;55.00
9116;DHT22;4593;53.652;10.168;2023-03-14T15:34:17;6.80;54.20
9116;DHT22;4593;53.652;10.168;2023-03-14T15:36:43;6.60;54.60
9116;DHT22;4593;53.652;10.168;2023-03-14T15:39:10;6.40;56.30
9116;DHT22;4593;53.652;10.168;2023-03-14T15:41:36;6.20;57.90
9116;DHT22;4593;53.652;10.168;2023-03-14T15:44:02;6.20;58.50
9116;DHT22;4593;53.652;10.168;2023-03-14T15:46:27;6.40;59.50
9116;DHT22;4593;53.652;10.168;2023-03-14T15:48:53;6.30;58.30
9116;DHT22;4593;53.652;10.168;2023-03-14T15:51:19;6.30;59.00
9116;DHT22;4593;53.652;10.168;2023-03-14T15:53:45;6.40;58.50
9116;DHT22;4593;53.652;10.168;2023-03-14T15:56:13;6.50;58.00
9116;DHT22;4593;53.652;10.168;2023-03-14T15:58:40;6.30;55.80
9116;DHT22;4593;53.652;10.168;2023-03-14T16:01:07;6.20;56.00
9116;DHT22;4593;53.652;10.168;2023-03-14T16:03:36;6.10;55.80
9116;DHT22;4593;53.652;10.168;2023-03-14T16:06:03;6.00;55.80
9116;DHT22;4593;53.652;10.168;2023-03-14T16:08:28;5.80;56.10
9116;DHT22;4593;53.652;10.168;2023-03-14T16:10:57;5.70;54.90
9116;DHT22;4593;53.652;10.168;2023-03-14T16:13:23;5.80;54.90
9116;DHT22;4593;53.652;10.168;2023-03-14T16:15:59;5.70;55.40
9116;DHT22;4593;53.652;10.168;2023-03-14T16:18:28;5.70;56.50
9116;DHT22;4593;53.652;10.168;2023-03-14T16:21:05;5.80;56.40
9116;DHT22;4593;53.652;10.168;2023-03-14T16:23:32;5.80;56.90
9116;DHT22;4593;53.652;10.168;2023-03-14T16:25:58;5.90;58.70
9116;DHT22;4593;53.652;10.168;2023-03-14T16:28:25;5.90;58.40
9116;DHT22;4593;53.652;10.168;2023-03-14T16:30:51;5.90;59.00
9116;DHT22;4593;53.652;10.168;2023-03-14T16:33:18;5.90;59.80
9116;DHT22;4593;53.652;10.168;2023-03-14T16:35:54;5.90;59.00
9116;DHT22;4593;53.652;10.168;2023-03-14T16:38:21;5.60;59.30
9116;DHT22;4593;53.652;10.168;2023-03-14T16:40:55;5.50;59.60
9116;DHT22;4593;53.652;10.168;2023-03-14T16:43:21;5.20;59.30
9116;DHT22;4593;53.652;10.168;2023-03-14T16:45:49;5.20;60.90
9116;DHT22;4593;53.652;10.168;2023-03-14T16:48:14;5.10;61.30
9116;DHT22;4593;53.652;10.168;2023-03-14T16:50:40;5.00;61.50
9116;DHT22;4593;53.652;10.168;2023-03-14T16:53:06;4.90;61.80
9116;DHT22;4593;53.652;10.168;2023-03-14T16:55:32;4.70;62.20
9116;DHT22;4593;53.652;10.168;2023-03-14T16:57:57;4.70;63.20
9116;DHT22;4593;53.652;10.168;2023-03-14T17:00:23;4.60;63.20
9116;DHT22;4593;53.652;10.168;2023-03-14T17:02:48;4.50;63.00
9116;DHT22;4593;53.652;10.168;2023-03-14T17:05:14;4.50;63.20
9116;DHT22;4593;53.652;10.168;2023-03-14T17:07:40;4.40;63.20
9116;DHT22;4593;53.652;10.168;2023-03-14T17:10:06;4.40;64.00
9116;DHT22;4593;53.652;10.168;2023-03-14T17:12:31;4.30;64.30
9116;DHT22;4593;53.652;10.168;2023-03-14T17:14:59;4.30;64.40
9116;DHT22;4593;53.652;10.168;2023-03-14T17:17:24;4.30;64.00
9116;DHT22;4593;53.652;10.168;2023-03-14T17:19:50;4.20;63.70
9116;DHT22;4593;53.652;10.168;2023-03-14T17:22:16;4.20;64.80
9116;DHT22;4593;53.652;10.168;2023-03-14T17:24:41;4.10;64.70
9116;DHT22;4593;53.652;10.168;2023-03-14T17:27:07;4.10;65.20
9116;DHT22;4593;53.652;10.168;2023-03-14T17:29:33;4.10;65.50